sensor_id;sensor_type;location;lat;lon;timestamp;P1;durP1;ratioP1;P2;durP2;ratioP2
43527;SDS011;52359;42.658;23.320;2023-08-01T00:00:51;1.80;;;1.70;;
43527;SDS011;52359;42.658;23.320;2023-08-01T00:03:17;3.88;;;1.92;;
43527;SDS011;52359;42.658;23.320;2023-08-01T00:05:43;1.48;;;1.38;;
43527;SDS011;52359;42.658;23.320;2023-08-01T00:08:10;1.45;;;1.42;;
43527;SDS011;52359;42.658;23.320;2023-08-01T00:10:37;2.17;;;1.98;;
43527;SDS011;52359;42.658;23.320;2023-08-01T00:13:03;1.85;;;1.67;;
43527;SDS011;52359;42.658;23.320;2023-08-01T00:15:29;2.22;;;2.03;;
43527;SDS011;52359;42.658;23.320;2023-08-01T00:17:56;2.72;;;1.85;;
43527;SDS011;52359;42.658;23.320;2023-08-01T00:20:22;5.40;;;1.95;;
43527;SDS011;52359;42.658;23.320;2023-08-01T00:22:48;2.60;;;1.70;;
43527;SDS011;52359;42.658;23.320;2023-08-01T00:25:14;1.75;;;1.65;;
43527;SDS011;52359;42.658;23.320;2023-08-01T00:27:40;2.75;;;1.95;;
43527;SDS011;52359;42.658;23.320;2023-08-01T00:30:07;2.22;;;1.63;;
43527;SDS011;52359;42.658;23.320;2023-08-01T00:32:34;2.03;;;1.80;;
43527;SDS011;52359;42.658;23.320;2023-08-01T00:35:00;1.92;;;1.83;;
43527;SDS011;52359;42.658;23.320;2023-08-01T00:37:26;4.72;;;2.15;;
43527;SDS011;52359;42.658;23.320;2023-08-01T00:39:51;2.60;;;2.40;;
43527;SDS011;52359;42.658;23.320;2023-08-01T00:42:17;3.85;;;1.90;;
43527;SDS011;52359;42.658;23.320;2023-08-01T00:44:42;3.20;;;1.60;;
43527;SDS011;52359;42.658;23.320;2023-08-01T00:47:08;2.17;;;2.00;;
43527;SDS011;52359;42.658;23.320;2023-08-01T00:49:35;2.10;;;2.00;;
43527;SDS011;52359;42.658;23.320;2023-08-01T00:52:01;1.95;;;1.85;;
43527;SDS011;52359;42.658;23.320;2023-08-01T00:54:27;3.72;;;2.05;;
43527;SDS011;52359;42.658;23.320;2023-08-01T00:56:53;4.10;;;2.13;;
43527;SDS011;52359;42.658;23.320;2023-08-01T00:59:19;1.80;;;1.70;;
43527;SDS011;52359;42.658;23.320;2023-08-01T01:01:45;4.88;;;1.92;;
43527;SDS011;52359;42.658;23.320;2023-08-01T01:04:10;3.72;;;1.90;;
43527;SDS011;52359;42.658;23.320;2023-08-01T01:09:17;5.55;;;2.10;;
43527;SDS011;52359;42.658;23.320;2023-08-01T01:11:44;3.88;;;1.90;;
43527;SDS011;52359;42.658;23.320;2023-08-01T01:14:10;2.22;;;1.73;;
43527;SDS011;52359;42.658;23.320;2023-08-01T01:16:36;2.03;;;1.92;;
43527;SDS011;52359;42.658;23.320;2023-08-01T01:19:05;2.55;;;2.35;;
43527;SDS011;52359;42.658;23.320;2023-08-01T01:21:33;3.00;;;2.10;;
43527;SDS011;52359;42.658;23.320;2023-08-01T01:24:01;3.65;;;1.95;;
43527;SDS011;52359;42.658;23.320;2023-08-01T01:26:32;3.88;;;1.95;;
43527;SDS011;52359;42.658;23.320;2023-08-01T01:28:59;3.65;;;1.83;;
43527;SDS011;52359;42.658;23.320;2023-08-01T01:31:25;1.80;;;1.70;;
43527;SDS011;52359;42.658;23.320;2023-08-01T01:33:52;3.35;;;1.73;;
43527;SDS011;52359;42.658;23.320;2023-08-01T01:36:18;4.32;;;2.03;;
43527;SDS011;52359;42.658;23.320;2023-08-01T01:38:44;1.80;;;1.70;;
43527;SDS011;52359;42.658;23.320;2023-08-01T01:41:09;2.60;;;2.08;;
43527;SDS011;52359;42.658;23.320;2023-08-01T01:43:36;4.43;;;2.22;;
43527;SDS011;52359;42.658;23.320;2023-08-01T01:46:03;2.45;;;2.03;;
43527;SDS011;52359;42.658;23.320;2023-08-01T01:48:29;4.72;;;1.80;;
43527;SDS011;52359;42.658;23.320;2023-08-01T01:50:54;2.30;;;2.08;;
43527;SDS011;52359;42.658;23.320;2023-08-01T01:53:20;2.58;;;2.10;;
43527;SDS011;52359;42.658;23.320;2023-08-01T01:55:46;1.83;;;1.73;;
43527;SDS011;52359;42.658;23.320;2023-08-01T01:58:11;4.55;;;2.15;;
43527;SDS011;52359;42.658;23.320;2023-08-01T02:00:37;2.95;;;2.30;;
43527;SDS011;52359;42.658;23.320;2023-08-01T02:03:02;4.30;;;1.80;;
43527;SDS011;52359;42.658;23.320;2023-08-01T02:05:29;2.33;;;1.73;;
43527;SDS011;52359;42.658;23.320;2023-08-01T02:07:55;3.45;;;2.15;;
43527;SDS011;52359;42.658;23.320;2023-08-01T02:10:20;2.42;;;1.80;;
43527;SDS011;52359;42.658;23.320;2023-08-01T02:12:46;3.05;;;1.95;;
43527;SDS011;52359;42.658;23.320;2023-08-01T02:15:12;2.13;;;1.88;;
43527;SDS011;52359;42.658;23.320;2023-08-01T02:17:37;2.22;;;2.03;;
43527;SDS011;52359;42.658;23.320;2023-08-01T02:20:04;7.28;;;1.90;;
43527;SDS011;52359;42.658;23.320;2023-08-01T02:22:30;2.95;;;1.98;;
43527;SDS011;52359;42.658;23.320;2023-08-01T02:24:55;6.25;;;2.28;;
43527;SDS011;52359;42.658;23.320;2023-08-01T02:27:21;4.85;;;2.08;;
43527;SDS011;52359;42.658;23.320;2023-08-01T02:29:46;2.95;;;2.10;;
43527;SDS011;52359;42.658;23.320;2023-08-01T02:32:12;5.07;;;2.13;;
43527;SDS011;52359;42.658;23.320;2023-08-01T02:34:38;2.85;;;1.80;;
43527;SDS011;52359;42.658;23.320;2023-08-01T02:37:03;8.85;;;2.85;;
43527;SDS011;52359;42.658;23.320;2023-08-01T02:39:29;4.78;;;2.10;;
43527;SDS011;52359;42.658;23.320;2023-08-01T02:41:55;3.05;;;1.90;;
43527;SDS011;52359;42.658;23.320;2023-08-01T02:44:20;3.22;;;2.22;;
43527;SDS011;52359;42.658;23.320;2023-08-01T02:46:46;3.92;;;2.00;;
43527;SDS011;52359;42.658;23.320;2023-08-01T02:49:12;7.18;;;2.50;;
43527;SDS011;52359;42.658;23.320;2023-08-01T02:51:37;2.72;;;2.15;;
43527;SDS011;52359;42.658;23.320;2023-08-01T02:54:03;2.70;;;1.85;;
43527;SDS011;52359;42.658;23.320;2023-08-01T02:56:28;5.50;;;1.98;;
43527;SDS011;52359;42.658;23.320;2023-08-01T02:58:54;7.65;;;2.58;;
43527;SDS011;52359;42.658;23.320;2023-08-01T03:01:20;8.00;;;2.20;;
43527;SDS011;52359;42.658;23.320;2023-08-01T03:03:46;2.38;;;1.95;;
43527;SDS011;52359;42.658;23.320;2023-08-01T03:06:12;8.93;;;2.85;;
43527;SDS011;52359;42.658;23.320;2023-08-01T03:08:39;2.38;;;2.17;;
43527;SDS011;52359;42.658;23.320;2023-08-01T03:11:05;3.55;;;2.15;;
43527;SDS011;52359;42.658;23.320;2023-08-01T03:13:30;6.03;;;2.50;;
43527;SDS011;52359;42.658;23.320;2023-08-01T03:15:56;4.38;;;2.55;;
43527;SDS011;52359;42.658;23.320;2023-08-01T03:18:22;11.45;;;3.22;;
43527;SDS011;52359;42.658;23.320;2023-08-01T03:20:47;7.38;;;2.35;;
43527;SDS011;52359;42.658;23.320;2023-08-01T03:23:13;9.57;;;3.20;;
43527;SDS011;52359;42.658;23.320;2023-08-01T03:25:39;6.53;;;2.65;;
43527;SDS011;52359;42.658;23.320;2023-08-01T03:28:05;6.28;;;3.05;;
43527;SDS011;52359;42.658;23.320;2023-08-01T03:30:31;11.63;;;3.53;;
43527;SDS011;52359;42.658;23.320;2023-08-01T03:32:57;9.30;;;3.17;;
43527;SDS011;52359;42.658;23.320;2023-08-01T03:35:23;14.02;;;3.33;;
43527;SDS011;52359;42.658;23.320;2023-08-01T03:37:49;5.53;;;3.22;;
43527;SDS011;52359;42.658;23.320;2023-08-01T03:40:14;9.35;;;2.35;;
43527;SDS011;52359;42.658;23.320;2023-08-01T03:42:40;5.38;;;2.67;;
43527;SDS011;52359;42.658;23.320;2023-08-01T03:45:06;2.85;;;2.55;;
43527;SDS011;52359;42.658;23.320;2023-08-01T03:47:32;4.32;;;2.97;;
43527;SDS011;52359;42.658;23.320;2023-08-01T03:49:58;4.20;;;2.70;;
43527;SDS011;52359;42.658;23.320;2023-08-01T03:52:24;9.82;;;2.83;;
43527;SDS011;52359;42.658;23.320;2023-08-01T03:54:52;7.07;;;3.00;;
43527;SDS011;52359;42.658;23.320;2023-08-01T03:57:19;8.68;;;2.42;;
43527;SDS011;52359;42.658;23.320;2023-08-01T03:59:46;4.45;;;2.50;;
43527;SDS011;52359;42.658;23.320;2023-08-01T04:02:11;3.00;;;2.60;;
43527;SDS011;52359;42.658;23.320;2023-08-01T04:04:37;7.38;;;3.33;;
43527;SDS011;52359;42.658;23.320;2023-08-01T04:07:03;3.00;;;2.70;;
43527;SDS011;52359;42.658;23.320;2023-08-01T04:09:29;6.00;;;2.80;;
43527;SDS011;52359;42.658;23.320;2023-08-01T04:11:55;6.53;;;3.35;;
43527;SDS011;52359;42.658;23.320;2023-08-01T04:14:21;7.03;;;3.10;;
43527;SDS011;52359;42.658;23.320;2023-08-01T04:16:46;4.20;;;3.22;;
43527;SDS011;52359;42.658;23.320;2023-08-01T04:19:12;5.53;;;3.58;;
43527;SDS011;52359;42.658;23.320;2023-08-01T04:21:38;4.40;;;3.30;;
43527;SDS011;52359;42.658;23.320;2023-08-01T04:24:04;5.95;;;4.10;;
43527;SDS011;52359;42.658;23.320;2023-08-01T04:26:29;15.68;;;4.38;;
43527;SDS011;52359;42.658;23.320;2023-08-01T04:28:55;4.13;;;3.67;;
43527;SDS011;52359;42.658;23.320;2023-08-01T04:31:21;4.00;;;3.63;;
43527;SDS011;52359;42.658;23.320;2023-08-01T04:33:47;5.18;;;3.63;;
43527;SDS011;52359;42.658;23.320;2023-08-01T04:36:13;5.93;;;3.92;;
43527;SDS011;52359;42.658;23.320;2023-08-01T04:38:39;5.10;;;4.05;;
43527;SDS011;52359;42.658;23.320;2023-08-01T04:41:05;4.43;;;4.03;;
43527;SDS011;52359;42.658;23.320;2023-08-01T04:43:31;6.22;;;4.25;;
43527;SDS011;52359;42.658;23.320;2023-08-01T04:45:57;8.32;;;4.15;;
43527;SDS011;52359;42.658;23.320;2023-08-01T04:48:23;6.85;;;3.80;;
43527;SDS011;52359;42.658;23.320;2023-08-01T04:50:49;12.57;;;4.72;;
43527;SDS011;52359;42.658;23.320;2023-08-01T04:53:15;5.97;;;4.07;;
43527;SDS011;52359;42.658;23.320;2023-08-01T04:55:41;7.82;;;4.50;;
43527;SDS011;52359;42.658;23.320;2023-08-01T04:58:07;5.25;;;4.45;;
43527;SDS011;52359;42.658;23.320;2023-08-01T05:00:33;13.98;;;5.90;;
43527;SDS011;52359;42.658;23.320;2023-08-01T05:02:59;10.27;;;4.78;;
43527;SDS011;52359;42.658;23.320;2023-08-01T05:05:25;5.35;;;4.13;;
43527;SDS011;52359;42.658;23.320;2023-08-01T05:07:51;6.13;;;3.97;;
43527;SDS011;52359;42.658;23.320;2023-08-01T05:10:17;9.27;;;5.25;;
43527;SDS011;52359;42.658;23.320;2023-08-01T05:12:43;12.45;;;5.15;;
43527;SDS011;52359;42.658;23.320;2023-08-01T05:15:09;7.38;;;5.13;;
43527;SDS011;52359;42.658;23.320;2023-08-01T05:17:35;5.53;;;4.50;;
43527;SDS011;52359;42.658;23.320;2023-08-01T05:20:01;7.43;;;4.50;;
43527;SDS011;52359;42.658;23.320;2023-08-01T05:22:29;10.75;;;5.22;;
43527;SDS011;52359;42.658;23.320;2023-08-01T05:24:55;12.27;;;4.75;;
43527;SDS011;52359;42.658;23.320;2023-08-01T05:27:21;6.88;;;4.35;;
43527;SDS011;52359;42.658;23.320;2023-08-01T05:29:47;10.95;;;4.47;;
43527;SDS011;52359;42.658;23.320;2023-08-01T05:32:13;11.02;;;4.68;;
43527;SDS011;52359;42.658;23.320;2023-08-01T05:34:39;6.22;;;4.55;;
43527;SDS011;52359;42.658;23.320;2023-08-01T05:37:05;9.07;;;4.88;;
43527;SDS011;52359;42.658;23.320;2023-08-01T05:39:31;10.27;;;3.70;;
43527;SDS011;52359;42.658;23.320;2023-08-01T05:41:57;9.90;;;4.88;;
43527;SDS011;52359;42.658;23.320;2023-08-01T05:44:23;12.75;;;4.65;;
43527;SDS011;52359;42.658;23.320;2023-08-01T05:46:49;11.65;;;5.35;;
43527;SDS011;52359;42.658;23.320;2023-08-01T05:49:15;9.32;;;5.13;;
43527;SDS011;52359;42.658;23.320;2023-08-01T05:51:41;7.03;;;4.80;;
43527;SDS011;52359;42.658;23.320;2023-08-01T05:54:07;16.05;;;6.80;;
43527;SDS011;52359;42.658;23.320;2023-08-01T05:56:33;10.95;;;4.32;;
43527;SDS011;52359;42.658;23.320;2023-08-01T05:58:59;9.00;;;3.90;;
43527;SDS011;52359;42.658;23.320;2023-08-01T06:01:25;13.65;;;3.47;;
43527;SDS011;52359;42.658;23.320;2023-08-01T06:03:51;10.25;;;3.45;;
43527;SDS011;52359;42.658;23.320;2023-08-01T06:06:17;5.63;;;2.80;;
43527;SDS011;52359;42.658;23.320;2023-08-01T06:08:42;5.28;;;3.33;;
43527;SDS011;52359;42.658;23.320;2023-08-01T06:11:08;6.50;;;2.72;;
43527;SDS011;52359;42.658;23.320;2023-08-01T06:13:34;5.82;;;3.78;;
43527;SDS011;52359;42.658;23.320;2023-08-01T06:15:59;7.57;;;3.75;;
43527;SDS011;52359;42.658;23.320;2023-08-01T06:18:25;8.27;;;3.03;;
43527;SDS011;52359;42.658;23.320;2023-08-01T06:20:50;4.90;;;2.45;;
43527;SDS011;52359;42.658;23.320;2023-08-01T06:23:16;10.90;;;3.33;;
43527;SDS011;52359;42.658;23.320;2023-08-01T06:25:42;5.38;;;2.38;;
43527;SDS011;52359;42.658;23.320;2023-08-01T06:28:07;8.80;;;3.42;;
43527;SDS011;52359;42.658;23.320;2023-08-01T06:30:33;5.80;;;2.33;;
43527;SDS011;52359;42.658;23.320;2023-08-01T06:32:59;4.00;;;2.80;;
43527;SDS011;52359;42.658;23.320;2023-08-01T06:35:25;6.07;;;2.97;;
43527;SDS011;52359;42.658;23.320;2023-08-01T06:37:51;8.32;;;2.63;;
43527;SDS011;52359;42.658;23.320;2023-08-01T06:40:17;4.45;;;2.90;;
43527;SDS011;52359;42.658;23.320;2023-08-01T06:42:43;4.78;;;2.45;;
43527;SDS011;52359;42.658;23.320;2023-08-01T06:45:09;5.70;;;3.15;;
43527;SDS011;52359;42.658;23.320;2023-08-01T06:47:35;4.97;;;2.88;;
43527;SDS011;52359;42.658;23.320;2023-08-01T06:50:01;12.48;;;2.97;;
43527;SDS011;52359;42.658;23.320;2023-08-01T06:52:27;5.97;;;2.50;;
43527;SDS011;52359;42.658;23.320;2023-08-01T06:54:53;4.63;;;2.70;;
43527;SDS011;52359;42.658;23.320;2023-08-01T06:57:19;5.63;;;3.63;;
43527;SDS011;52359;42.658;23.320;2023-08-01T06:59:45;8.57;;;2.75;;
43527;SDS011;52359;42.658;23.320;2023-08-01T07:02:11;3.88;;;2.63;;
43527;SDS011;52359;42.658;23.320;2023-08-01T07:04:37;4.57;;;2.97;;
43527;SDS011;52359;42.658;23.320;2023-08-01T07:07:03;4.22;;;2.60;;
43527;SDS011;52359;42.658;23.320;2023-08-01T07:09:29;6.18;;;3.20;;
43527;SDS011;52359;42.658;23.320;2023-08-01T07:11:55;3.63;;;2.28;;
43527;SDS011;52359;42.658;23.320;2023-08-01T07:14:21;13.88;;;2.85;;
43527;SDS011;52359;42.658;23.320;2023-08-01T07:16:47;11.13;;;2.85;;
43527;SDS011;52359;42.658;23.320;2023-08-01T07:19:13;5.82;;;2.95;;
43527;SDS011;52359;42.658;23.320;2023-08-01T07:21:39;6.05;;;2.80;;
43527;SDS011;52359;42.658;23.320;2023-08-01T07:24:05;5.30;;;2.83;;
43527;SDS011;52359;42.658;23.320;2023-08-01T07:26:31;6.18;;;2.90;;
43527;SDS011;52359;42.658;23.320;2023-08-01T07:28:57;6.35;;;2.88;;
43527;SDS011;52359;42.658;23.320;2023-08-01T07:31:23;6.88;;;2.92;;
43527;SDS011;52359;42.658;23.320;2023-08-01T07:33:49;5.45;;;2.85;;
43527;SDS011;52359;42.658;23.320;2023-08-01T07:36:15;8.05;;;3.20;;
43527;SDS011;52359;42.658;23.320;2023-08-01T07:38:41;5.32;;;2.78;;
43527;SDS011;52359;42.658;23.320;2023-08-01T07:41:07;5.63;;;2.83;;
43527;SDS011;52359;42.658;23.320;2023-08-01T07:43:33;11.15;;;3.35;;
43527;SDS011;52359;42.658;23.320;2023-08-01T07:45:59;6.50;;;3.00;;
43527;SDS011;52359;42.658;23.320;2023-08-01T07:48:26;8.45;;;3.20;;
43527;SDS011;52359;42.658;23.320;2023-08-01T07:50:52;6.38;;;3.17;;
43527;SDS011;52359;42.658;23.320;2023-08-01T07:53:18;4.72;;;2.55;;
43527;SDS011;52359;42.658;23.320;2023-08-01T07:55:44;4.70;;;2.50;;
43527;SDS011;52359;42.658;23.320;2023-08-01T07:58:10;6.47;;;3.33;;
43527;SDS011;52359;42.658;23.320;2023-08-01T08:00:36;6.32;;;2.80;;
43527;SDS011;52359;42.658;23.320;2023-08-01T08:03:02;3.92;;;2.97;;
43527;SDS011;52359;42.658;23.320;2023-08-01T08:05:28;9.88;;;3.25;;
43527;SDS011;52359;42.658;23.320;2023-08-01T08:07:54;11.82;;;3.15;;
43527;SDS011;52359;42.658;23.320;2023-08-01T08:10:20;13.75;;;3.17;;
43527;SDS011;52359;42.658;23.320;2023-08-01T08:12:46;10.93;;;3.05;;
43527;SDS011;52359;42.658;23.320;2023-08-01T08:15:12;6.85;;;3.25;;
43527;SDS011;52359;42.658;23.320;2023-08-01T08:17:40;7.38;;;3.03;;
43527;SDS011;52359;42.658;23.320;2023-08-01T08:20:07;7.20;;;3.53;;
43527;SDS011;52359;42.658;23.320;2023-08-01T08:22:33;18.38;;;3.00;;
43527;SDS011;52359;42.658;23.320;2023-08-01T08:24:59;6.40;;;2.83;;
43527;SDS011;52359;42.658;23.320;2023-08-01T08:27:25;9.38;;;3.08;;
43527;SDS011;52359;42.658;23.320;2023-08-01T08:29:51;7.10;;;2.92;;
43527;SDS011;52359;42.658;23.320;2023-08-01T08:32:17;7.40;;;3.03;;
43527;SDS011;52359;42.658;23.320;2023-08-01T08:34:43;12.48;;;3.88;;
43527;SDS011;52359;42.658;23.320;2023-08-01T08:37:09;7.50;;;3.70;;
43527;SDS011;52359;42.658;23.320;2023-08-01T08:39:35;6.43;;;2.90;;
43527;SDS011;52359;42.658;23.320;2023-08-01T08:42:01;8.98;;;3.00;;
43527;SDS011;52359;42.658;23.320;2023-08-01T08:44:27;10.95;;;2.72;;
43527;SDS011;52359;42.658;23.320;2023-08-01T08:46:55;4.38;;;3.13;;
43527;SDS011;52359;42.658;23.320;2023-08-01T08:49:27;4.85;;;2.50;;
43527;SDS011;52359;42.658;23.320;2023-08-01T08:51:54;6.85;;;2.63;;
43527;SDS011;52359;42.658;23.320;2023-08-01T08:54:20;8.40;;;3.47;;
43527;SDS011;52359;42.658;23.320;2023-08-01T08:56:45;10.70;;;2.75;;
43527;SDS011;52359;42.658;23.320;2023-08-01T08:59:12;5.93;;;3.05;;
43527;SDS011;52359;42.658;23.320;2023-08-01T09:01:38;7.65;;;2.80;;
43527;SDS011;52359;42.658;23.320;2023-08-01T09:04:04;3.17;;;2.60;;
43527;SDS011;52359;42.658;23.320;2023-08-01T09:06:40;3.88;;;2.88;;
43527;SDS011;52359;42.658;23.320;2023-08-01T09:09:09;4.97;;;3.00;;
43527;SDS011;52359;42.658;23.320;2023-08-01T09:11:47;4.25;;;3.15;;
43527;SDS011;52359;42.658;23.320;2023-08-01T09:14:13;3.65;;;2.65;;
43527;SDS011;52359;42.658;23.320;2023-08-01T09:16:40;6.05;;;2.70;;
43527;SDS011;52359;42.658;23.320;2023-08-01T09:19:07;5.60;;;3.10;;
43527;SDS011;52359;42.658;23.320;2023-08-01T09:21:34;4.45;;;3.22;;
43527;SDS011;52359;42.658;23.320;2023-08-01T09:26:39;4.80;;;2.72;;
43527;SDS011;52359;42.658;23.320;2023-08-01T09:29:05;14.82;;;3.28;;
43527;SDS011;52359;42.658;23.320;2023-08-01T09:31:35;16.70;;;4.43;;
43527;SDS011;52359;42.658;23.320;2023-08-01T09:34:02;5.18;;;2.97;;
43527;SDS011;52359;42.658;23.320;2023-08-01T09:36:32;11.55;;;3.55;;
43527;SDS011;52359;42.658;23.320;2023-08-01T09:39:01;6.43;;;2.85;;
43527;SDS011;52359;42.658;23.320;2023-08-01T09:41:30;3.50;;;2.92;;
43527;SDS011;52359;42.658;23.320;2023-08-01T09:43:57;4.88;;;3.33;;
43527;SDS011;52359;42.658;23.320;2023-08-01T09:46:23;6.00;;;2.95;;
43527;SDS011;52359;42.658;23.320;2023-08-01T09:48:49;5.85;;;3.00;;
43527;SDS011;52359;42.658;23.320;2023-08-01T09:51:16;3.65;;;2.88;;
43527;SDS011;52359;42.658;23.320;2023-08-01T09:53:46;6.82;;;2.80;;
43527;SDS011;52359;42.658;23.320;2023-08-01T09:56:14;4.70;;;3.03;;
43527;SDS011;52359;42.658;23.320;2023-08-01T09:58:42;4.00;;;2.90;;
43527;SDS011;52359;42.658;23.320;2023-08-01T10:01:08;2.78;;;2.53;;
43527;SDS011;52359;42.658;23.320;2023-08-01T10:03:34;3.90;;;2.95;;
43527;SDS011;52359;42.658;23.320;2023-08-01T10:06:00;5.57;;;3.33;;
43527;SDS011;52359;42.658;23.320;2023-08-01T10:08:28;5.15;;;3.30;;
43527;SDS011;52359;42.658;23.320;2023-08-01T10:10:57;9.50;;;3.22;;
43527;SDS011;52359;42.658;23.320;2023-08-01T10:13:23;4.15;;;2.63;;
43527;SDS011;52359;42.658;23.320;2023-08-01T10:15:50;3.47;;;2.80;;
43527;SDS011;52359;42.658;23.320;2023-08-01T10:18:17;4.45;;;2.70;;
43527;SDS011;52359;42.658;23.320;2023-08-01T10:20:43;5.55;;;2.80;;
43527;SDS011;52359;42.658;23.320;2023-08-01T10:23:09;3.97;;;2.72;;
43527;SDS011;52359;42.658;23.320;2023-08-01T10:25:36;7.00;;;3.13;;
43527;SDS011;52359;42.658;23.320;2023-08-01T10:28:02;3.85;;;2.85;;
43527;SDS011;52359;42.658;23.320;2023-08-01T10:30:29;5.95;;;3.35;;
43527;SDS011;52359;42.658;23.320;2023-08-01T10:32:56;4.75;;;2.90;;
43527;SDS011;52359;42.658;23.320;2023-08-01T10:38:07;9.98;;;3.42;;
43527;SDS011;52359;42.658;23.320;2023-08-01T10:40:38;5.43;;;2.55;;
43527;SDS011;52359;42.658;23.320;2023-08-01T10:43:05;3.78;;;2.60;;
43527;SDS011;52359;42.658;23.320;2023-08-01T10:45:31;4.30;;;3.33;;
43527;SDS011;52359;42.658;23.320;2023-08-01T10:48:10;9.82;;;3.25;;
43527;SDS011;52359;42.658;23.320;2023-08-01T10:50:36;8.43;;;3.03;;
43527;SDS011;52359;42.658;23.320;2023-08-01T10:53:04;4.10;;;2.70;;
43527;SDS011;52359;42.658;23.320;2023-08-01T10:55:40;10.15;;;3.17;;
43527;SDS011;52359;42.658;23.320;2023-08-01T10:58:06;3.92;;;3.05;;
43527;SDS011;52359;42.658;23.320;2023-08-01T11:00:32;5.22;;;2.95;;
43527;SDS011;52359;42.658;23.320;2023-08-01T11:02:58;3.53;;;2.92;;
43527;SDS011;52359;42.658;23.320;2023-08-01T11:05:24;5.97;;;3.28;;
43527;SDS011;52359;42.658;23.320;2023-08-01T11:07:56;5.57;;;3.05;;
43527;SDS011;52359;42.658;23.320;2023-08-01T11:10:23;8.80;;;2.90;;
43527;SDS011;52359;42.658;23.320;2023-08-01T11:12:49;5.57;;;3.22;;
43527;SDS011;52359;42.658;23.320;2023-08-01T11:15:15;5.20;;;2.95;;
43527;SDS011;52359;42.658;23.320;2023-08-01T11:17:42;6.63;;;3.00;;
43527;SDS011;52359;42.658;23.320;2023-08-01T11:20:09;4.97;;;3.33;;
43527;SDS011;52359;42.658;23.320;2023-08-01T11:22:35;4.22;;;3.00;;
43527;SDS011;52359;42.658;23.320;2023-08-01T11:25:02;5.55;;;2.58;;
43527;SDS011;52359;42.658;23.320;2023-08-01T11:27:28;5.82;;;2.63;;
43527;SDS011;52359;42.658;23.320;2023-08-01T11:29:54;7.13;;;2.78;;
43527;SDS011;52359;42.658;23.320;2023-08-01T11:32:20;3.28;;;2.63;;
43527;SDS011;52359;42.658;23.320;2023-08-01T11:34:47;3.67;;;2.55;;
43527;SDS011;52359;42.658;23.320;2023-08-01T11:37:14;4.82;;;2.50;;
43527;SDS011;52359;42.658;23.320;2023-08-01T11:39:40;2.13;;;2.03;;
43527;SDS011;52359;42.658;23.320;2023-08-01T11:42:06;4.40;;;2.83;;
43527;SDS011;52359;42.658;23.320;2023-08-01T11:44:32;5.05;;;2.55;;
43527;SDS011;52359;42.658;23.320;2023-08-01T11:46:58;5.25;;;2.50;;
43527;SDS011;52359;42.658;23.320;2023-08-01T11:49:24;4.43;;;2.70;;
43527;SDS011;52359;42.658;23.320;2023-08-01T11:51:51;5.63;;;2.60;;
43527;SDS011;52359;42.658;23.320;2023-08-01T11:54:17;4.97;;;2.25;;
43527;SDS011;52359;42.658;23.320;2023-08-01T11:56:43;5.05;;;2.58;;
43527;SDS011;52359;42.658;23.320;2023-08-01T11:59:10;4.60;;;2.75;;
43527;SDS011;52359;42.658;23.320;2023-08-01T12:01:39;4.18;;;2.75;;
43527;SDS011;52359;42.658;23.320;2023-08-01T12:04:06;4.15;;;2.83;;
43527;SDS011;52359;42.658;23.320;2023-08-01T12:06:32;5.45;;;3.88;;
43527;SDS011;52359;42.658;23.320;2023-08-01T12:09:11;7.15;;;2.60;;
43527;SDS011;52359;42.658;23.320;2023-08-01T12:11:38;3.70;;;2.63;;
43527;SDS011;52359;42.658;23.320;2023-08-01T12:14:08;4.07;;;2.60;;
43527;SDS011;52359;42.658;23.320;2023-08-01T12:16:34;6.70;;;2.60;;
43527;SDS011;52359;42.658;23.320;2023-08-01T12:19:01;6.75;;;2.60;;
43527;SDS011;52359;42.658;23.320;2023-08-01T12:21:27;4.85;;;2.33;;
43527;SDS011;52359;42.658;23.320;2023-08-01T12:23:53;8.05;;;2.53;;
43527;SDS011;52359;42.658;23.320;2023-08-01T12:26:19;8.25;;;2.50;;
43527;SDS011;52359;42.658;23.320;2023-08-01T12:28:45;4.30;;;2.72;;
43527;SDS011;52359;42.658;23.320;2023-08-01T12:31:15;6.15;;;2.97;;
43527;SDS011;52359;42.658;23.320;2023-08-01T12:33:41;4.78;;;3.03;;
43527;SDS011;52359;42.658;23.320;2023-08-01T12:36:07;5.05;;;2.72;;
43527;SDS011;52359;42.658;23.320;2023-08-01T12:38:33;7.63;;;2.53;;
43527;SDS011;52359;42.658;23.320;2023-08-01T12:41:00;3.17;;;2.42;;
43527;SDS011;52359;42.658;23.320;2023-08-01T12:43:26;7.32;;;2.72;;
43527;SDS011;52359;42.658;23.320;2023-08-01T12:45:52;4.82;;;3.05;;
43527;SDS011;52359;42.658;23.320;2023-08-01T12:48:20;4.32;;;2.28;;
43527;SDS011;52359;42.658;23.320;2023-08-01T12:50:46;14.73;;;2.30;;
43527;SDS011;52359;42.658;23.320;2023-08-01T12:53:13;3.75;;;2.40;;
43527;SDS011;52359;42.658;23.320;2023-08-01T12:55:42;4.38;;;2.35;;
43527;SDS011;52359;42.658;23.320;2023-08-01T12:58:10;2.50;;;2.25;;
43527;SDS011;52359;42.658;23.320;2023-08-01T13:00:36;4.18;;;2.15;;
43527;SDS011;52359;42.658;23.320;2023-08-01T13:03:02;2.75;;;2.40;;
43527;SDS011;52359;42.658;23.320;2023-08-01T13:05:28;2.95;;;2.42;;
43527;SDS011;52359;42.658;23.320;2023-08-01T13:07:54;8.77;;;2.47;;
43527;SDS011;52359;42.658;23.320;2023-08-01T13:10:20;3.03;;;2.45;;
43527;SDS011;52359;42.658;23.320;2023-08-01T13:12:46;2.47;;;2.25;;
43527;SDS011;52359;42.658;23.320;2023-08-01T13:15:12;6.28;;;2.58;;
43527;SDS011;52359;42.658;23.320;2023-08-01T13:17:38;2.95;;;2.20;;
43527;SDS011;52359;42.658;23.320;2023-08-01T13:20:05;2.35;;;2.17;;
43527;SDS011;52359;42.658;23.320;2023-08-01T13:22:31;6.35;;;2.17;;
43527;SDS011;52359;42.658;23.320;2023-08-01T13:24:57;4.78;;;2.42;;
43527;SDS011;52359;42.658;23.320;2023-08-01T13:27:23;1.95;;;1.85;;
43527;SDS011;52359;42.658;23.320;2023-08-01T13:29:49;11.25;;;2.05;;
43527;SDS011;52359;42.658;23.320;2023-08-01T13:32:17;8.20;;;2.03;;
43527;SDS011;52359;42.658;23.320;2023-08-01T13:34:43;3.80;;;1.92;;
43527;SDS011;52359;42.658;23.320;2023-08-01T13:37:10;1.90;;;1.73;;
43527;SDS011;52359;42.658;23.320;2023-08-01T13:39:36;4.07;;;2.47;;
43527;SDS011;52359;42.658;23.320;2023-08-01T13:42:02;4.50;;;2.22;;
43527;SDS011;52359;42.658;23.320;2023-08-01T13:44:28;6.82;;;2.22;;
43527;SDS011;52359;42.658;23.320;2023-08-01T13:46:54;2.60;;;2.05;;
43527;SDS011;52359;42.658;23.320;2023-08-01T13:49:20;4.00;;;2.03;;
43527;SDS011;52359;42.658;23.320;2023-08-01T13:51:46;3.65;;;1.95;;
43527;SDS011;52359;42.658;23.320;2023-08-01T13:54:12;6.78;;;2.53;;
43527;SDS011;52359;42.658;23.320;2023-08-01T13:56:38;2.88;;;2.00;;
43527;SDS011;52359;42.658;23.320;2023-08-01T13:59:04;13.23;;;2.35;;
43527;SDS011;52359;42.658;23.320;2023-08-01T14:01:30;14.63;;;2.38;;
43527;SDS011;52359;42.658;23.320;2023-08-01T14:03:56;4.05;;;2.45;;
43527;SDS011;52359;42.658;23.320;2023-08-01T14:06:23;2.83;;;2.05;;
43527;SDS011;52359;42.658;23.320;2023-08-01T14:08:49;1.95;;;1.83;;
43527;SDS011;52359;42.658;23.320;2023-08-01T14:11:15;4.57;;;2.13;;
43527;SDS011;52359;42.658;23.320;2023-08-01T14:13:41;2.30;;;2.10;;
43527;SDS011;52359;42.658;23.320;2023-08-01T14:16:07;2.42;;;2.22;;
43527;SDS011;52359;42.658;23.320;2023-08-01T14:18:33;2.25;;;1.90;;
43527;SDS011;52359;42.658;23.320;2023-08-01T14:20:59;2.00;;;1.88;;
43527;SDS011;52359;42.658;23.320;2023-08-01T14:23:25;5.30;;;2.03;;
43527;SDS011;52359;42.658;23.320;2023-08-01T14:25:51;2.40;;;2.22;;
43527;SDS011;52359;42.658;23.320;2023-08-01T14:28:17;3.38;;;1.80;;
43527;SDS011;52359;42.658;23.320;2023-08-01T14:30:43;2.33;;;2.22;;
43527;SDS011;52359;42.658;23.320;2023-08-01T14:33:09;6.18;;;2.25;;
43527;SDS011;52359;42.658;23.320;2023-08-01T14:35:35;5.05;;;1.98;;